sensor_id;sensor_type;location;lat;lon;timestamp;P1;durP1;ratioP1;P2;durP2;ratioP2
57341;SDS011;43175;51.002;18.316;2023-06-22T00:00:52;32.60;;;25.00;;
57341;SDS011;43175;51.002;18.316;2023-06-22T00:03:18;32.20;;;26.20;;
57341;SDS011;43175;51.002;18.316;2023-06-22T00:05:46;33.10;;;26.60;;
57341;SDS011;43175;51.002;18.316;2023-06-22T00:08:13;34.60;;;27.60;;
57341;SDS011;43175;51.002;18.316;2023-06-22T00:10:38;33.00;;;27.00;;
57341;SDS011;43175;51.002;18.316;2023-06-22T00:13:05;33.60;;;27.70;;
57341;SDS011;43175;51.002;18.316;2023-06-22T00:15:31;34.50;;;27.00;;
57341;SDS011;43175;51.002;18.316;2023-06-22T00:17:57;32.50;;;25.70;;
57341;SDS011;43175;51.002;18.316;2023-06-22T00:20:24;30.60;;;24.90;;
57341;SDS011;43175;51.002;18.316;2023-06-22T00:22:56;32.60;;;25.90;;
57341;SDS011;43175;51.002;18.316;2023-06-22T00:25:22;30.80;;;25.40;;
57341;SDS011;43175;51.002;18.316;2023-06-22T00:27:48;31.90;;;25.50;;
57341;SDS011;43175;51.002;18.316;2023-06-22T00:30:15;32.60;;;25.40;;
57341;SDS011;43175;51.002;18.316;2023-06-22T00:32:41;30.80;;;25.00;;
57341;SDS011;43175;51.002;18.316;2023-06-22T00:35:07;31.80;;;25.60;;
57341;SDS011;43175;51.002;18.316;2023-06-22T00:37:34;30.90;;;25.20;;
57341;SDS011;43175;51.002;18.316;2023-06-22T00:40:01;30.70;;;24.40;;
57341;SDS011;43175;51.002;18.316;2023-06-22T00:42:28;32.30;;;26.10;;
57341;SDS011;43175;51.002;18.316;2023-06-22T00:44:53;31.20;;;25.10;;
57341;SDS011;43175;51.002;18.316;2023-06-22T00:47:19;32.70;;;25.70;;
57341;SDS011;43175;51.002;18.316;2023-06-22T00:49:49;33.30;;;26.20;;
57341;SDS011;43175;51.002;18.316;2023-06-22T00:52:16;34.60;;;26.50;;
57341;SDS011;43175;51.002;18.316;2023-06-22T00:54:47;31.80;;;25.90;;
57341;SDS011;43175;51.002;18.316;2023-06-22T00:57:14;31.60;;;26.30;;
57341;SDS011;43175;51.002;18.316;2023-06-22T00:59:43;31.20;;;26.30;;
57341;SDS011;43175;51.002;18.316;2023-06-22T01:02:12;32.10;;;24.90;;
57341;SDS011;43175;51.002;18.316;2023-06-22T01:04:38;32.80;;;26.10;;
57341;SDS011;43175;51.002;18.316;2023-06-22T01:07:18;32.70;;;26.20;;
57341;SDS011;43175;51.002;18.316;2023-06-22T01:09:51;34.80;;;26.10;;
57341;SDS011;43175;51.002;18.316;2023-06-22T01:12:22;33.80;;;26.60;;
57341;SDS011;43175;51.002;18.316;2023-06-22T01:14:55;33.30;;;26.50;;
57341;SDS011;43175;51.002;18.316;2023-06-22T01:17:48;34.30;;;27.30;;
57341;SDS011;43175;51.002;18.316;2023-06-22T01:20:15;34.00;;;27.20;;
57341;SDS011;43175;51.002;18.316;2023-06-22T01:22:46;35.20;;;27.50;;
57341;SDS011;43175;51.002;18.316;2023-06-22T01:25:26;33.20;;;27.10;;
57341;SDS011;43175;51.002;18.316;2023-06-22T01:28:11;36.20;;;30.00;;
57341;SDS011;43175;51.002;18.316;2023-06-22T01:31:00;35.20;;;28.30;;
57341;SDS011;43175;51.002;18.316;2023-06-22T01:33:34;35.80;;;29.00;;
57341;SDS011;43175;51.002;18.316;2023-06-22T01:36:01;36.60;;;29.70;;
57341;SDS011;43175;51.002;18.316;2023-06-22T01:38:28;40.80;;;30.60;;
57341;SDS011;43175;51.002;18.316;2023-06-22T01:40:54;39.00;;;32.10;;
57341;SDS011;43175;51.002;18.316;2023-06-22T01:43:21;37.30;;;31.80;;
57341;SDS011;43175;51.002;18.316;2023-06-22T01:45:48;39.20;;;31.40;;
57341;SDS011;43175;51.002;18.316;2023-06-22T01:48:14;39.00;;;31.60;;
57341;SDS011;43175;51.002;18.316;2023-06-22T01:50:40;37.00;;;29.40;;
57341;SDS011;43175;51.002;18.316;2023-06-22T01:53:06;37.00;;;29.80;;
57341;SDS011;43175;51.002;18.316;2023-06-22T01:55:32;38.00;;;30.20;;
57341;SDS011;43175;51.002;18.316;2023-06-22T01:57:58;37.20;;;29.80;;
57341;SDS011;43175;51.002;18.316;2023-06-22T02:00:23;35.10;;;28.10;;
57341;SDS011;43175;51.002;18.316;2023-06-22T02:02:54;37.40;;;30.00;;
57341;SDS011;43175;51.002;18.316;2023-06-22T02:05:21;36.10;;;28.30;;
57341;SDS011;43175;51.002;18.316;2023-06-22T02:07:51;36.50;;;28.40;;
57341;SDS011;43175;51.002;18.316;2023-06-22T02:10:20;36.30;;;28.30;;
57341;SDS011;43175;51.002;18.316;2023-06-22T02:12:46;40.10;;;31.40;;
57341;SDS011;43175;51.002;18.316;2023-06-22T02:15:12;35.90;;;28.40;;
57341;SDS011;43175;51.002;18.316;2023-06-22T02:17:39;38.70;;;30.10;;
57341;SDS011;43175;51.002;18.316;2023-06-22T02:20:13;37.90;;;29.10;;
57341;SDS011;43175;51.002;18.316;2023-06-22T02:22:39;37.20;;;29.50;;
57341;SDS011;43175;51.002;18.316;2023-06-22T02:25:04;41.00;;;31.30;;
57341;SDS011;43175;51.002;18.316;2023-06-22T02:27:30;42.20;;;32.90;;
57341;SDS011;43175;51.002;18.316;2023-06-22T02:29:56;43.60;;;32.90;;
57341;SDS011;43175;51.002;18.316;2023-06-22T02:32:22;42.20;;;32.90;;
57341;SDS011;43175;51.002;18.316;2023-06-22T02:34:47;41.60;;;31.90;;
57341;SDS011;43175;51.002;18.316;2023-06-22T02:37:13;36.70;;;27.40;;
57341;SDS011;43175;51.002;18.316;2023-06-22T02:39:42;34.20;;;26.90;;
57341;SDS011;43175;51.002;18.316;2023-06-22T02:42:08;35.10;;;26.50;;
57341;SDS011;43175;51.002;18.316;2023-06-22T02:44:36;40.80;;;32.60;;
57341;SDS011;43175;51.002;18.316;2023-06-22T02:47:01;37.60;;;29.20;;
57341;SDS011;43175;51.002;18.316;2023-06-22T02:49:27;38.10;;;27.70;;
57341;SDS011;43175;51.002;18.316;2023-06-22T02:51:53;37.80;;;30.00;;
57341;SDS011;43175;51.002;18.316;2023-06-22T02:54:19;40.30;;;29.10;;
57341;SDS011;43175;51.002;18.316;2023-06-22T02:56:44;36.80;;;29.40;;
57341;SDS011;43175;51.002;18.316;2023-06-22T02:59:10;38.10;;;30.50;;
57341;SDS011;43175;51.002;18.316;2023-06-22T03:01:36;40.80;;;32.70;;
57341;SDS011;43175;51.002;18.316;2023-06-22T03:04:08;44.10;;;32.50;;
57341;SDS011;43175;51.002;18.316;2023-06-22T03:06:34;44.40;;;34.30;;
57341;SDS011;43175;51.002;18.316;2023-06-22T03:09:00;44.30;;;35.30;;
57341;SDS011;43175;51.002;18.316;2023-06-22T03:11:29;47.20;;;37.80;;
57341;SDS011;43175;51.002;18.316;2023-06-22T03:13:56;48.20;;;38.40;;
57341;SDS011;43175;51.002;18.316;2023-06-22T03:16:21;49.50;;;38.50;;
57341;SDS011;43175;51.002;18.316;2023-06-22T03:18:46;50.80;;;39.90;;
57341;SDS011;43175;51.002;18.316;2023-06-22T03:21:12;50.10;;;39.20;;
57341;SDS011;43175;51.002;18.316;2023-06-22T03:23:37;44.70;;;36.30;;
57341;SDS011;43175;51.002;18.316;2023-06-22T03:26:03;49.00;;;38.90;;
57341;SDS011;43175;51.002;18.316;2023-06-22T03:28:29;50.50;;;39.10;;
57341;SDS011;43175;51.002;18.316;2023-06-22T03:30:57;50.70;;;39.50;;
57341;SDS011;43175;51.002;18.316;2023-06-22T03:33:23;50.10;;;40.40;;
57341;SDS011;43175;51.002;18.316;2023-06-22T03:35:48;50.00;;;39.20;;
57341;SDS011;43175;51.002;18.316;2023-06-22T03:38:15;50.40;;;40.20;;
57341;SDS011;43175;51.002;18.316;2023-06-22T03:40:41;43.90;;;35.30;;
57341;SDS011;43175;51.002;18.316;2023-06-22T03:43:06;47.80;;;37.50;;
57341;SDS011;43175;51.002;18.316;2023-06-22T03:45:32;48.20;;;37.30;;
57341;SDS011;43175;51.002;18.316;2023-06-22T03:47:57;46.10;;;37.60;;
57341;SDS011;43175;51.002;18.316;2023-06-22T03:50:23;46.90;;;38.30;;
57341;SDS011;43175;51.002;18.316;2023-06-22T03:52:48;47.30;;;38.60;;
57341;SDS011;43175;51.002;18.316;2023-06-22T03:55:14;48.40;;;38.50;;
57341;SDS011;43175;51.002;18.316;2023-06-22T03:57:40;47.10;;;39.10;;
57341;SDS011;43175;51.002;18.316;2023-06-22T04:00:05;53.40;;;39.40;;
57341;SDS011;43175;51.002;18.316;2023-06-22T04:02:33;47.60;;;37.10;;
57341;SDS011;43175;51.002;18.316;2023-06-22T04:04:58;44.90;;;35.60;;
57341;SDS011;43175;51.002;18.316;2023-06-22T04:07:23;43.10;;;35.50;;
57341;SDS011;43175;51.002;18.316;2023-06-22T04:09:49;40.80;;;34.60;;
57341;SDS011;43175;51.002;18.316;2023-06-22T04:12:14;42.70;;;33.60;;
57341;SDS011;43175;51.002;18.316;2023-06-22T04:14:40;39.20;;;32.50;;
57341;SDS011;43175;51.002;18.316;2023-06-22T04:17:05;40.50;;;32.00;;
57341;SDS011;43175;51.002;18.316;2023-06-22T04:19:31;38.90;;;31.40;;
57341;SDS011;43175;51.002;18.316;2023-06-22T04:21:56;38.90;;;31.70;;
57341;SDS011;43175;51.002;18.316;2023-06-22T04:24:21;36.90;;;30.90;;
57341;SDS011;43175;51.002;18.316;2023-06-22T04:26:47;34.60;;;27.90;;
57341;SDS011;43175;51.002;18.316;2023-06-22T04:29:12;35.00;;;28.20;;
57341;SDS011;43175;51.002;18.316;2023-06-22T04:31:38;33.50;;;27.50;;
57341;SDS011;43175;51.002;18.316;2023-06-22T04:34:04;33.50;;;27.50;;
57341;SDS011;43175;51.002;18.316;2023-06-22T04:36:37;32.80;;;25.30;;
57341;SDS011;43175;51.002;18.316;2023-06-22T04:39:05;34.10;;;26.50;;
57341;SDS011;43175;51.002;18.316;2023-06-22T04:41:38;29.90;;;24.30;;
57341;SDS011;43175;51.002;18.316;2023-06-22T04:44:07;31.30;;;24.40;;
57341;SDS011;43175;51.002;18.316;2023-06-22T04:46:49;30.80;;;24.50;;
57341;SDS011;43175;51.002;18.316;2023-06-22T04:49:19;27.30;;;20.30;;
57341;SDS011;43175;51.002;18.316;2023-06-22T04:51:45;25.90;;;18.90;;
57341;SDS011;43175;51.002;18.316;2023-06-22T04:54:11;22.20;;;18.20;;
57341;SDS011;43175;51.002;18.316;2023-06-22T04:56:37;21.80;;;16.30;;
57341;SDS011;43175;51.002;18.316;2023-06-22T04:59:02;20.70;;;14.60;;
57341;SDS011;43175;51.002;18.316;2023-06-22T05:01:28;21.20;;;14.90;;
57341;SDS011;43175;51.002;18.316;2023-06-22T05:03:56;18.70;;;14.00;;
57341;SDS011;43175;51.002;18.316;2023-06-22T05:06:23;19.90;;;14.00;;
57341;SDS011;43175;51.002;18.316;2023-06-22T05:08:52;19.60;;;13.80;;
57341;SDS011;43175;51.002;18.316;2023-06-22T05:11:25;17.70;;;12.70;;
57341;SDS011;43175;51.002;18.316;2023-06-22T05:13:51;19.30;;;13.20;;
57341;SDS011;43175;51.002;18.316;2023-06-22T05:16:17;17.90;;;12.20;;
57341;SDS011;43175;51.002;18.316;2023-06-22T05:18:42;18.10;;;12.40;;
57341;SDS011;43175;51.002;18.316;2023-06-22T05:21:08;16.80;;;11.40;;
57341;SDS011;43175;51.002;18.316;2023-06-22T05:23:34;17.80;;;12.10;;
57341;SDS011;43175;51.002;18.316;2023-06-22T05:25:59;18.20;;;11.50;;
57341;SDS011;43175;51.002;18.316;2023-06-22T05:28:25;17.50;;;11.70;;
57341;SDS011;43175;51.002;18.316;2023-06-22T05:30:50;16.60;;;11.70;;
57341;SDS011;43175;51.002;18.316;2023-06-22T05:33:16;18.60;;;12.30;;
57341;SDS011;43175;51.002;18.316;2023-06-22T05:35:41;19.30;;;12.20;;
57341;SDS011;43175;51.002;18.316;2023-06-22T05:38:07;18.40;;;11.50;;
57341;SDS011;43175;51.002;18.316;2023-06-22T05:40:33;19.00;;;13.00;;
57341;SDS011;43175;51.002;18.316;2023-06-22T05:42:58;19.40;;;13.60;;
57341;SDS011;43175;51.002;18.316;2023-06-22T05:45:26;18.50;;;12.40;;
57341;SDS011;43175;51.002;18.316;2023-06-22T05:47:51;17.80;;;12.60;;
57341;SDS011;43175;51.002;18.316;2023-06-22T05:50:17;20.00;;;12.90;;
57341;SDS011;43175;51.002;18.316;2023-06-22T05:52:42;19.40;;;14.00;;
57341;SDS011;43175;51.002;18.316;2023-06-22T05:55:08;23.40;;;14.00;;
57341;SDS011;43175;51.002;18.316;2023-06-22T05:57:34;21.20;;;13.60;;
57341;SDS011;43175;51.002;18.316;2023-06-22T05:59:59;20.70;;;15.40;;
57341;SDS011;43175;51.002;18.316;2023-06-22T06:02:24;20.50;;;14.50;;
57341;SDS011;43175;51.002;18.316;2023-06-22T06:04:50;20.00;;;13.70;;
57341;SDS011;43175;51.002;18.316;2023-06-22T06:07:18;20.60;;;13.40;;
57341;SDS011;43175;51.002;18.316;2023-06-22T06:09:43;18.00;;;12.10;;
57341;SDS011;43175;51.002;18.316;2023-06-22T06:12:09;17.10;;;11.30;;
57341;SDS011;43175;51.002;18.316;2023-06-22T06:14:35;18.30;;;13.10;;
57341;SDS011;43175;51.002;18.316;2023-06-22T06:17:01;19.50;;;12.60;;
57341;SDS011;43175;51.002;18.316;2023-06-22T06:19:26;16.80;;;9.90;;
57341;SDS011;43175;51.002;18.316;2023-06-22T06:21:52;15.50;;;10.20;;
57341;SDS011;43175;51.002;18.316;2023-06-22T06:24:17;16.20;;;9.50;;
57341;SDS011;43175;51.002;18.316;2023-06-22T06:26:43;15.40;;;9.30;;
57341;SDS011;43175;51.002;18.316;2023-06-22T06:29:08;16.10;;;9.90;;
57341;SDS011;43175;51.002;18.316;2023-06-22T06:31:33;14.40;;;9.20;;
57341;SDS011;43175;51.002;18.316;2023-06-22T06:33:59;19.80;;;10.80;;
57341;SDS011;43175;51.002;18.316;2023-06-22T06:36:24;15.00;;;10.70;;
57341;SDS011;43175;51.002;18.316;2023-06-22T06:38:50;15.50;;;10.20;;
57341;SDS011;43175;51.002;18.316;2023-06-22T06:41:16;17.30;;;11.10;;
57341;SDS011;43175;51.002;18.316;2023-06-22T06:43:41;16.10;;;10.30;;
57341;SDS011;43175;51.002;18.316;2023-06-22T06:46:10;16.90;;;10.60;;
57341;SDS011;43175;51.002;18.316;2023-06-22T06:48:35;17.40;;;10.20;;
57341;SDS011;43175;51.002;18.316;2023-06-22T06:51:01;17.50;;;10.50;;
57341;SDS011;43175;51.002;18.316;2023-06-22T06:53:27;15.20;;;10.40;;
57341;SDS011;43175;51.002;18.316;2023-06-22T06:55:55;16.00;;;10.10;;
57341;SDS011;43175;51.002;18.316;2023-06-22T06:58:21;18.50;;;10.70;;
57341;SDS011;43175;51.002;18.316;2023-06-22T07:00:48;18.20;;;11.90;;
57341;SDS011;43175;51.002;18.316;2023-06-22T07:03:14;16.50;;;10.20;;
57341;SDS011;43175;51.002;18.316;2023-06-22T07:05:39;15.80;;;9.60;;
57341;SDS011;43175;51.002;18.316;2023-06-22T07:08:04;18.00;;;9.90;;
57341;SDS011;43175;51.002;18.316;2023-06-22T07:10:30;16.50;;;10.50;;
57341;SDS011;43175;51.002;18.316;2023-06-22T07:12:56;14.60;;;10.00;;
57341;SDS011;43175;51.002;18.316;2023-06-22T07:15:22;16.40;;;10.10;;
57341;SDS011;43175;51.002;18.316;2023-06-22T07:17:47;15.50;;;10.50;;
57341;SDS011;43175;51.002;18.316;2023-06-22T07:20:13;14.90;;;10.10;;
57341;SDS011;43175;51.002;18.316;2023-06-22T07:22:39;18.10;;;10.60;;
57341;SDS011;43175;51.002;18.316;2023-06-22T07:25:06;15.80;;;9.70;;
57341;SDS011;43175;51.002;18.316;2023-06-22T07:27:36;16.90;;;10.20;;
57341;SDS011;43175;51.002;18.316;2023-06-22T07:30:03;16.40;;;10.90;;
57341;SDS011;43175;51.002;18.316;2023-06-22T07:32:29;16.80;;;11.50;;
57341;SDS011;43175;51.002;18.316;2023-06-22T07:34:55;18.10;;;11.00;;
57341;SDS011;43175;51.002;18.316;2023-06-22T07:37:20;16.70;;;10.80;;
57341;SDS011;43175;51.002;18.316;2023-06-22T07:39:46;16.40;;;11.00;;
57341;SDS011;43175;51.002;18.316;2023-06-22T07:42:12;16.10;;;11.00;;
57341;SDS011;43175;51.002;18.316;2023-06-22T07:44:37;16.50;;;10.80;;
57341;SDS011;43175;51.002;18.316;2023-06-22T07:47:02;16.60;;;10.70;;
57341;SDS011;43175;51.002;18.316;2023-06-22T07:49:29;16.40;;;10.90;;
57341;SDS011;43175;51.002;18.316;2023-06-22T07:51:54;16.50;;;11.40;;
57341;SDS011;43175;51.002;18.316;2023-06-22T07:54:20;15.30;;;10.50;;
57341;SDS011;43175;51.002;18.316;2023-06-22T07:56:46;17.50;;;10.80;;
57341;SDS011;43175;51.002;18.316;2023-06-22T07:59:11;17.50;;;10.50;;
57341;SDS011;43175;51.002;18.316;2023-06-22T08:01:37;14.70;;;10.40;;
57341;SDS011;43175;51.002;18.316;2023-06-22T08:04:02;17.40;;;11.60;;
57341;SDS011;43175;51.002;18.316;2023-06-22T08:06:29;15.50;;;10.40;;
57341;SDS011;43175;51.002;18.316;2023-06-22T08:08:57;17.50;;;11.10;;
57341;SDS011;43175;51.002;18.316;2023-06-22T08:11:24;15.50;;;11.10;;
57341;SDS011;43175;51.002;18.316;2023-06-22T08:13:51;16.20;;;11.40;;
57341;SDS011;43175;51.002;18.316;2023-06-22T08:16:17;19.90;;;11.30;;
57341;SDS011;43175;51.002;18.316;2023-06-22T08:18:42;15.80;;;10.80;;
57341;SDS011;43175;51.002;18.316;2023-06-22T08:21:08;19.70;;;10.50;;
57341;SDS011;43175;51.002;18.316;2023-06-22T08:23:34;15.30;;;10.80;;
57341;SDS011;43175;51.002;18.316;2023-06-22T08:26:00;15.60;;;10.60;;
57341;SDS011;43175;51.002;18.316;2023-06-22T08:28:25;18.50;;;11.60;;
57341;SDS011;43175;51.002;18.316;2023-06-22T08:30:50;16.00;;;10.70;;
57341;SDS011;43175;51.002;18.316;2023-06-22T08:33:17;15.30;;;10.80;;
57341;SDS011;43175;51.002;18.316;2023-06-22T08:35:43;16.50;;;10.90;;
57341;SDS011;43175;51.002;18.316;2023-06-22T08:38:09;15.30;;;10.70;;
57341;SDS011;43175;51.002;18.316;2023-06-22T08:40:34;14.60;;;10.00;;
57341;SDS011;43175;51.002;18.316;2023-06-22T08:43:00;14.50;;;10.20;;
57341;SDS011;43175;51.002;18.316;2023-06-22T08:45:25;15.90;;;10.60;;
57341;SDS011;43175;51.002;18.316;2023-06-22T08:47:51;15.60;;;10.60;;
57341;SDS011;43175;51.002;18.316;2023-06-22T08:50:16;17.00;;;10.90;;
57341;SDS011;43175;51.002;18.316;2023-06-22T08:52:42;16.90;;;9.60;;
57341;SDS011;43175;51.002;18.316;2023-06-22T08:55:08;16.40;;;10.20;;
57341;SDS011;43175;51.002;18.316;2023-06-22T08:57:34;14.60;;;9.70;;
57341;SDS011;43175;51.002;18.316;2023-06-22T09:00:03;14.50;;;9.20;;
57341;SDS011;43175;51.002;18.316;2023-06-22T09:02:36;15.80;;;9.30;;
57341;SDS011;43175;51.002;18.316;2023-06-22T09:05:03;14.90;;;9.90;;
57341;SDS011;43175;51.002;18.316;2023-06-22T09:07:29;15.10;;;9.60;;
57341;SDS011;43175;51.002;18.316;2023-06-22T09:09:55;14.90;;;9.60;;
57341;SDS011;43175;51.002;18.316;2023-06-22T09:12:21;15.80;;;9.90;;
57341;SDS011;43175;51.002;18.316;2023-06-22T09:14:51;15.50;;;9.80;;
57341;SDS011;43175;51.002;18.316;2023-06-22T09:17:17;29.00;;;22.10;;
57341;SDS011;43175;51.002;18.316;2023-06-22T09:19:42;14.20;;;9.80;;
57341;SDS011;43175;51.002;18.316;2023-06-22T09:22:08;15.70;;;9.10;;
57341;SDS011;43175;51.002;18.316;2023-06-22T09:24:33;18.10;;;8.90;;
57341;SDS011;43175;51.002;18.316;2023-06-22T09:26:59;14.40;;;7.90;;
57341;SDS011;43175;51.002;18.316;2023-06-22T09:29:25;15.70;;;8.10;;
57341;SDS011;43175;51.002;18.316;2023-06-22T09:31:50;13.80;;;8.10;;
57341;SDS011;43175;51.002;18.316;2023-06-22T09:34:18;13.60;;;9.20;;
57341;SDS011;43175;51.002;18.316;2023-06-22T09:36:48;14.60;;;9.00;;
57341;SDS011;43175;51.002;18.316;2023-06-22T09:39:13;13.20;;;8.50;;
57341;SDS011;43175;51.002;18.316;2023-06-22T09:41:39;13.00;;;8.50;;
57341;SDS011;43175;51.002;18.316;2023-06-22T09:44:04;13.30;;;8.30;;
57341;SDS011;43175;51.002;18.316;2023-06-22T09:46:30;13.40;;;8.00;;
57341;SDS011;43175;51.002;18.316;2023-06-22T09:48:55;15.40;;;8.00;;
57341;SDS011;43175;51.002;18.316;2023-06-22T09:51:22;13.20;;;8.00;;
57341;SDS011;43175;51.002;18.316;2023-06-22T09:53:49;13.40;;;8.10;;
57341;SDS011;43175;51.002;18.316;2023-06-22T09:56:15;15.00;;;8.00;;
57341;SDS011;43175;51.002;18.316;2023-06-22T09:58:44;13.70;;;8.30;;
57341;SDS011;43175;51.002;18.316;2023-06-22T10:01:11;14.10;;;8.70;;
57341;SDS011;43175;51.002;18.316;2023-06-22T10:03:37;13.70;;;8.60;;
57341;SDS011;43175;51.002;18.316;2023-06-22T10:06:02;13.90;;;8.30;;
57341;SDS011;43175;51.002;18.316;2023-06-22T10:08:29;13.40;;;8.10;;
57341;SDS011;43175;51.002;18.316;2023-06-22T10:10:54;12.10;;;7.50;;
57341;SDS011;43175;51.002;18.316;2023-06-22T10:13:20;12.70;;;7.40;;
57341;SDS011;43175;51.002;18.316;2023-06-22T10:15:45;11.90;;;7.60;;
57341;SDS011;43175;51.002;18.316;2023-06-22T10:18:16;13.40;;;7.70;;
57341;SDS011;43175;51.002;18.316;2023-06-22T10:20:43;22.30;;;16.80;;
57341;SDS011;43175;51.002;18.316;2023-06-22T10:23:08;12.50;;;8.10;;
57341;SDS011;43175;51.002;18.316;2023-06-22T10:25:34;12.50;;;7.80;;
57341;SDS011;43175;51.002;18.316;2023-06-22T10:27:59;13.10;;;7.90;;
57341;SDS011;43175;51.002;18.316;2023-06-22T10:30:25;13.60;;;7.80;;
57341;SDS011;43175;51.002;18.316;2023-06-22T10:32:50;14.20;;;8.20;;
57341;SDS011;43175;51.002;18.316;2023-06-22T10:35:16;13.20;;;7.80;;
57341;SDS011;43175;51.002;18.316;2023-06-22T10:37:42;12.10;;;6.70;;
57341;SDS011;43175;51.002;18.316;2023-06-22T10:40:12;11.90;;;7.10;;
57341;SDS011;43175;51.002;18.316;2023-06-22T10:42:38;13.40;;;7.60;;
57341;SDS011;43175;51.002;18.316;2023-06-22T10:45:04;13.00;;;7.90;;
57341;SDS011;43175;51.002;18.316;2023-06-22T10:47:30;12.20;;;7.40;;
57341;SDS011;43175;51.002;18.316;2023-06-22T10:49:56;13.90;;;7.50;;
57341;SDS011;43175;51.002;18.316;2023-06-22T10:52:21;12.00;;;6.90;;
57341;SDS011;43175;51.002;18.316;2023-06-22T10:54:46;12.30;;;7.30;;
57341;SDS011;43175;51.002;18.316;2023-06-22T10:57:12;12.60;;;6.90;;
57341;SDS011;43175;51.002;18.316;2023-06-22T10:59:37;12.20;;;7.20;;
57341;SDS011;43175;51.002;18.316;2023-06-22T11:02:03;12.90;;;7.40;;
57341;SDS011;43175;51.002;18.316;2023-06-22T11:04:28;11.40;;;6.70;;
57341;SDS011;43175;51.002;18.316;2023-06-22T11:06:54;14.30;;;7.00;;
57341;SDS011;43175;51.002;18.316;2023-06-22T11:09:21;16.70;;;6.80;;
57341;SDS011;43175;51.002;18.316;2023-06-22T11:11:47;11.80;;;6.60;;
57341;SDS011;43175;51.002;18.316;2023-06-22T11:14:13;12.20;;;6.60;;
57341;SDS011;43175;51.002;18.316;2023-06-22T11:16:39;12.50;;;7.00;;
57341;SDS011;43175;51.002;18.316;2023-06-22T11:19:04;12.30;;;6.60;;
57341;SDS011;43175;51.002;18.316;2023-06-22T11:21:31;11.90;;;7.10;;
57341;SDS011;43175;51.002;18.316;2023-06-22T11:23:57;11.30;;;6.50;;
57341;SDS011;43175;51.002;18.316;2023-06-22T11:26:22;11.50;;;6.60;;
57341;SDS011;43175;51.002;18.316;2023-06-22T11:28:48;10.90;;;6.30;;
57341;SDS011;43175;51.002;18.316;2023-06-22T11:31:14;11.70;;;6.50;;
57341;SDS011;43175;51.002;18.316;2023-06-22T11:33:39;10.80;;;5.90;;
57341;SDS011;43175;51.002;18.316;2023-06-22T11:36:05;11.80;;;6.50;;
57341;SDS011;43175;51.002;18.316;2023-06-22T11:38:30;10.80;;;5.80;;
57341;SDS011;43175;51.002;18.316;2023-06-22T11:40:57;11.40;;;5.80;;
57341;SDS011;43175;51.002;18.316;2023-06-22T11:43:23;11.80;;;6.10;;
57341;SDS011;43175;51.002;18.316;2023-06-22T11:45:49;11.00;;;6.10;;
57341;SDS011;43175;51.002;18.316;2023-06-22T11:48:14;11.30;;;6.50;;
57341;SDS011;43175;51.002;18.316;2023-06-22T11:50:40;10.80;;;6.10;;
57341;SDS011;43175;51.002;18.316;2023-06-22T11:53:06;12.40;;;6.80;;
57341;SDS011;43175;51.002;18.316;2023-06-22T11:55:31;11.90;;;7.00;;
57341;SDS011;43175;51.002;18.316;2023-06-22T11:57:57;11.40;;;6.50;;
57341;SDS011;43175;51.002;18.316;2023-06-22T12:00:28;11.30;;;6.90;;
57341;SDS011;43175;51.002;18.316;2023-06-22T12:02:55;12.00;;;6.60;;
57341;SDS011;43175;51.002;18.316;2023-06-22T12:05:21;11.80;;;6.80;;
57341;SDS011;43175;51.002;18.316;2023-06-22T12:07:47;11.30;;;6.50;;
57341;SDS011;43175;51.002;18.316;2023-06-22T12:10:13;11.30;;;6.40;;
57341;SDS011;43175;51.002;18.316;2023-06-22T12:12:40;11.30;;;6.40;;
57341;SDS011;43175;51.002;18.316;2023-06-22T12:15:06;12.50;;;6.80;;
57341;SDS011;43175;51.002;18.316;2023-06-22T12:17:34;11.50;;;6.80;;
57341;SDS011;43175;51.002;18.316;2023-06-22T12:19:59;10.80;;;6.40;;
57341;SDS011;43175;51.002;18.316;2023-06-22T12:22:25;11.10;;;6.20;;
57341;SDS011;43175;51.002;18.316;2023-06-22T12:24:50;12.50;;;6.60;;
57341;SDS011;43175;51.002;18.316;2023-06-22T12:27:16;13.00;;;6.70;;
57341;SDS011;43175;51.002;18.316;2023-06-22T12:29:44;11.20;;;6.60;;
57341;SDS011;43175;51.002;18.316;2023-06-22T12:32:11;11.40;;;6.40;;
57341;SDS011;43175;51.002;18.316;2023-06-22T12:34:38;11.30;;;6.00;;
57341;SDS011;43175;51.002;18.316;2023-06-22T12:37:04;10.90;;;6.10;;
57341;SDS011;43175;51.002;18.316;2023-06-22T12:39:31;11.30;;;6.30;;
57341;SDS011;43175;51.002;18.316;2023-06-22T12:41:57;10.20;;;5.70;;
57341;SDS011;43175;51.002;18.316;2023-06-22T12:44:22;11.70;;;6.20;;
57341;SDS011;43175;51.002;18.316;2023-06-22T12:46:48;11.00;;;6.50;;
57341;SDS011;43175;51.002;18.316;2023-06-22T12:49:13;12.70;;;6.50;;
57341;SDS011;43175;51.002;18.316;2023-06-22T12:51:39;11.80;;;6.30;;
57341;SDS011;43175;51.002;18.316;2023-06-22T12:54:06;10.80;;;6.10;;
57341;SDS011;43175;51.002;18.316;2023-06-22T12:56:32;11.30;;;6.10;;
57341;SDS011;43175;51.002;18.316;2023-06-22T12:58:58;11.00;;;6.30;;
57341;SDS011;43175;51.002;18.316;2023-06-22T13:01:24;11.30;;;6.20;;
57341;SDS011;43175;51.002;18.316;2023-06-22T13:03:50;12.00;;;6.60;;
57341;SDS011;43175;51.002;18.316;2023-06-22T13:06:15;12.00;;;6.10;;
57341;SDS011;43175;51.002;18.316;2023-06-22T13:08:41;11.20;;;6.30;;
57341;SDS011;43175;51.002;18.316;2023-06-22T13:11:07;11.30;;;6.10;;
57341;SDS011;43175;51.002;18.316;2023-06-22T13:13:33;10.50;;;5.70;;
57341;SDS011;43175;51.002;18.316;2023-06-22T13:15:59;12.00;;;6.30;;
57341;SDS011;43175;51.002;18.316;2023-06-22T13:18:24;11.70;;;6.00;;
57341;SDS011;43175;51.002;18.316;2023-06-22T13:20:50;13.30;;;6.20;;
57341;SDS011;43175;51.002;18.316;2023-06-22T13:23:16;13.50;;;6.20;;
57341;SDS011;43175;51.002;18.316;2023-06-22T13:25:41;10.60;;;6.00;;
57341;SDS011;43175;51.002;18.316;2023-06-22T13:28:06;11.20;;;6.10;;
57341;SDS011;43175;51.002;18.316;2023-06-22T13:30:32;11.60;;;6.40;;
57341;SDS011;43175;51.002;18.316;2023-06-22T13:32:58;12.10;;;6.70;;
57341;SDS011;43175;51.002;18.316;2023-06-22T13:35:23;11.60;;;6.80;;
57341;SDS011;43175;51.002;18.316;2023-06-22T13:37:49;12.90;;;6.50;;
57341;SDS011;43175;51.002;18.316;2023-06-22T13:40:14;11.50;;;6.80;;
57341;SDS011;43175;51.002;18.316;2023-06-22T13:42:39;11.10;;;6.50;;
57341;SDS011;43175;51.002;18.316;2023-06-22T13:45:06;11.50;;;6.30;;
57341;SDS011;43175;51.002;18.316;2023-06-22T13:47:32;13.20;;;6.20;;
57341;SDS011;43175;51.002;18.316;2023-06-22T13:49:58;11.60;;;6.50;;
57341;SDS011;43175;51.002;18.316;2023-06-22T13:52:24;13.00;;;6.40;;
57341;SDS011;43175;51.002;18.316;2023-06-22T13:54:49;11.00;;;6.00;;
57341;SDS011;43175;51.002;18.316;2023-06-22T13:57:15;10.60;;;5.90;;
57341;SDS011;43175;51.002;18.316;2023-06-22T13:59:40;10.70;;;5.90;;
57341;SDS011;43175;51.002;18.316;2023-06-22T14:02:06;10.70;;;6.10;;
57341;SDS011;43175;51.002;18.316;2023-06-22T14:04:32;12.60;;;6.10;;
57341;SDS011;43175;51.002;18.316;2023-06-22T14:06:57;11.70;;;6.50;;
57341;SDS011;43175;51.002;18.316;2023-06-22T14:09:22;11.20;;;5.90;;